Latest Coastal Weather Observations for Wilsons Promontory

IDT60701

Issued at 4:15 pm EST Saturday 30 August 2014 (issued every 10 minutes, with the page automatically refreshed every 10 minutes)

About coastal observations | Map of coastal stations | Coastal observations for TAS | Marine services | Other Formats
Station Details ID: 085096 Name: WILSONS PROMONTORY LIGHTHOUSE Lat: -39.13 Lon: 146.42 Height: 95.0 m
Data from the previous 72 hours. | See also: Recent months at Wilsons Promontory
Date/Time
EST
Temp

°C
Wind Pressure Rain
since 9am
mm
Weather Cloud Vis
km
Sea
Height
m
Swell
Dir
 
Speed
knots
Gust
knots
hPa Trend Height
m
Period
s
Dir
30/04:00pm 12.9 NNE 18 22 1022.8 - 0.0 - - - - - - -
30/03:30pm 13.2 NNE 17 21 1022.9 - 0.0 - - - - - - -
30/03:00pm 13.3 NNE 19 23 1023.1 - 0.0 - - - - - - -
30/02:30pm 13.4 NNE 20 25 1023.1 - 0.0 - - - - - - -
30/02:00pm 13.6 NNE 21 26 1023.1 - 0.0 - - - - - - -
30/01:30pm 13.6 NNE 22 29 1023.3 - 0.0 - - - - - - -
30/01:00pm 13.6 NNE 22 28 1023.6 - 0.0 - - - - - - -
30/12:30pm 13.7 NNE 22 30 1024.0 - 0.0 - - - - - - -
30/12:00pm 13.7 NNE 22 29 1024.6 - 0.0 - - - - - - -
30/11:30am 13.7 NNE 22 29 1025.0 - 0.0 - - - - - - -
30/11:00am 13.7 NNE 22 26 1025.4 - 0.0 - - - - - - -
30/10:30am 13.6 NNE 23 29 1025.9 - 0.0 - - - - - - -
30/10:00am 13.5 NNE 22 26 1026.2 - 0.0 - - - - - - -
30/09:30am 13.4 NNE 22 27 1026.4 - 0.0 - - - - - - -
30/09:00am 13.2 NNE 23 29 1026.7 - 0.2 - - - - - - -
30/08:30am 12.8 NNE 22 26 1026.7 - 0.2 - - - - - - -
30/08:00am 12.6 NE 22 26 1026.9 - 0.2 - - - - - - -
30/07:30am 11.9 NNE 19 24 1027.1 - 0.2 - - - - - - -
30/07:00am 11.4 NNE 18 24 1026.7 - 0.2 - - - - - - -
30/06:30am 11.2 NNE 19 24 1026.5 - 0.2 - - - - - - -
30/06:00am 11.3 NNE 20 25 1026.7 - 0.0 - - - - - - -
30/05:30am 11.5 NNE 18 24 1026.5 - 0.0 - - - - - - -
30/05:00am 11.6 NNE 18 22 1026.5 - 0.0 - - - - - - -
30/04:30am 11.6 NNE 20 24 1026.4 - 0.0 - - - - - - -
30/04:00am 11.7 NNE 19 24 1026.4 - 0.0 - - - - - - -
30/03:30am 11.7 NNE 19 26 1026.6 - 0.0 - - - - - - -
30/03:00am 12.0 NE 20 23 1026.8 - 0.0 - - - - - - -
30/02:30am 12.1 NE 19 22 1026.8 - 0.0 - - - - - - -
30/02:00am 12.3 NE 18 21 1027.2 - 0.0 - - - - - - -
30/01:30am 12.4 NE 17 19 1027.7 - 0.0 - - - - - - -
30/01:00am 12.3 NE 20 23 1027.6 - 0.0 - - - - - - -
30/12:30am 12.3 ENE 19 23 1027.6 - 0.0 - - - - - - -
30/12:00am 12.3 ENE 15 18 1028.0 - 0.0 - - - - - - -
 
Date/Time
EST
Temp

°C
Wind Pressure Rain
since 9am
mm
Weather Cloud Vis
km
Sea
Height
m
Swell
Dir
 
Speed
knots
Gust
knots
hPa Trend Height
m
Period
s
Dir
29/11:30pm 12.2 NE 14 16 1028.1 - 0.0 - - - - - - -
29/11:00pm 12.4 NNE 12 15 1028.2 - 0.0 - - - - - - -
29/10:30pm 12.5 NNE 13 16 1028.4 - 0.0 - - - - - - -
29/10:00pm 12.5 NE 14 16 1028.5 - 0.0 - - - - - - -
29/09:30pm 12.5 NE 12 14 1028.6 - 0.0 - - - - - - -
29/09:00pm 12.6 ENE 11 15 1028.7 - 0.0 - - - - - - -
29/08:30pm 12.5 NE 9 11 1028.6 - 0.0 - - - - - - -
29/08:00pm 12.3 NNE 9 11 1028.6 - 0.0 - - - - - - -
29/07:30pm 12.4 NE 13 15 1028.3 - 0.0 - - - - - - -
29/07:00pm 12.3 NE 10 12 1028.4 - 0.0 - - - - - - -
29/06:30pm 12.2 NNE 8 10 1028.4 - 0.0 - - - - - - -
29/06:00pm 12.3 NE 8 10 1028.0 - 0.0 - - - - - - -
29/05:30pm 12.6 NNE 8 10 1027.9 - 0.0 - - - - - - -
29/05:00pm 12.9 NNE 7 9 1027.8 - 0.0 - - - - - - -
29/04:30pm 13.2 NNE 7 9 1027.6 - 0.0 - - - - - - -
29/04:00pm 13.4 NE 7 8 1027.8 - 0.0 - - - - - - -
29/03:30pm 13.6 NNE 6 7 1027.9 - 0.0 - - - - - - -
29/03:00pm 13.4 NE 7 7 1027.9 - 0.0 - - - - - - -
29/02:30pm 13.6 NE 6 7 1027.9 - 0.0 - - - - - - -
29/02:00pm 13.1 E 4 5 1028.1 - 0.0 - - - - - - -
29/01:30pm 13.2 SSW 3 3 1028.2 - 0.0 - - - - - - -
29/01:00pm 13.6 SW 3 5 1028.3 - 0.0 - - - - - - -
29/12:30pm 14.6 WSW 5 6 1028.6 - 0.0 - - - - - - -
29/12:00pm 14.1 WSW 6 8 1029.0 - 0.0 - - - - - - -
29/11:30am 13.8 W 5 7 1029.1 - 0.0 - - - - - - -
29/11:00am 14.3 SW 4 5 1029.2 - 0.0 - - - - - - -
29/10:30am 14.1 SW 4 5 1029.1 - 0.0 - - - - - - -
29/10:00am 13.4 SW 5 6 1029.1 - 0.0 - - - - - - -
29/09:30am 13.0 WSW 8 10 1029.2 - 0.0 - - - - - - -
29/09:00am 12.7 W 8 10 1029.3 - 0.0 - - - - - - -
29/08:30am 12.7 W 10 13 1029.1 - 0.0 - - - - - - -
29/08:00am 12.3 W 10 12 1028.6 - 0.0 - - - - - - -
29/07:30am 11.9 W 9 11 1028.5 - 0.0 - - - - - - -
29/07:00am 11.6 W 7 8 1028.1 - 0.0 - - - - - - -
29/06:30am 11.4 W 6 7 1027.8 - 0.0 - - - - - - -
29/06:00am 11.5 WSW 6 7 1027.7 - 0.0 - - - - - - -
29/05:30am 11.4 W 5 7 1027.5 - 0.0 - - - - - - -
29/05:00am 11.5 W 7 9 1027.5 - 0.0 - - - - - - -
29/04:30am 11.6 W 8 10 1027.5 - 0.0 - - - - - - -
29/04:00am 11.4 W 9 11 1027.5 - 0.0 - - - - - - -
29/03:30am 11.9 W 11 13 1027.4 - 0.0 - - - - - - -
29/03:00am 12.1 W 10 13 1027.4 - 0.0 - - - - - - -
29/02:30am 12.0 WSW 8 9 1027.5 - 0.0 - - - - - - -
29/02:00am 11.8 SW 5 6 1027.7 - 0.0 - - - - - - -
29/01:30am 11.9 NW 5 9 1027.8 - 0.0 - - - - - - -
29/01:00am 11.8 NNE 9 11 1027.6 - 0.0 - - - - - - -
29/12:30am 12.0 NNE 11 14 1027.7 - 0.0 - - - - - - -
29/12:00am 12.0 NNE 11 15 1027.9 - 0.0 - - - - - - -
 
Date/Time
EST
Temp

°C
Wind Pressure Rain
since 9am
mm
Weather Cloud Vis
km
Sea
Height
m
Swell
Dir
 
Speed
knots
Gust
knots
hPa Trend Height
m
Period
s
Dir
28/11:30pm 12.0 NNE 10 14 1027.8 - 0.0 - - - - - - -
28/11:00pm 11.9 NNE 9 13 1028.1 - 0.0 - - - - - - -
28/10:30pm 11.9 NNE 10 14 1028.2 - 0.0 - - - - - - -
28/10:00pm 11.9 NNE 11 16 1028.3 - 0.0 - - - - - - -
28/09:30pm 11.9 NNE 12 17 1028.3 - 0.0 - - - - - - -
28/09:00pm 11.6 NNE 11 15 1028.3 - 0.0 - - - - - - -
28/08:30pm 11.6 NNE 11 14 1028.1 - 0.0 - - - - - - -
28/08:00pm 11.9 NNE 12 15 1027.9 - 0.0 - - - - - - -
28/07:30pm 12.0 NNE 11 15 1027.8 - 0.0 - - - - - - -
28/07:00pm 11.7 NNE 11 14 1027.8 - 0.0 - - - - - - -
28/06:30pm 11.6 NNE 12 14 1027.8 - 0.0 - - - - - - -
28/06:00pm 11.6 NNE 12 14 1027.7 - 0.0 - - - - - - -
28/05:30pm 11.8 NNE 11 13 1027.5 - 0.0 - - - - - - -
28/05:00pm 12.1 NNE 10 11 1027.3 - 0.0 - - - - - - -
28/04:30pm 12.4 NNE 9 11 1027.3 - 0.0 - - - - - - -
28/04:00pm 12.9 NNE 9 11 1027.3 - 0.0 - - - - - - -
28/03:30pm 13.2 NNE 9 11 1027.3 - 0.0 - - - - - - -
28/03:00pm 13.8 NNE 10 11 1027.4 - 0.0 - - - - - - -
28/02:30pm 13.6 NNE 10 12 1027.4 - 0.0 - - - - - - -
28/02:00pm 13.7 NNE 13 15 1027.3 - 0.0 - - - - - - -
28/01:30pm 13.2 NE 14 16 1027.4 - 0.0 - - - - - - -
28/01:00pm 13.8 NE 12 15 1027.7 - 0.0 - - - - - - -
28/12:30pm 14.5 NE 13 15 1028.0 - 0.0 - - - - - - -
28/12:00pm 14.5 NE 12 15 1028.4 - 0.0 - - - - - - -
28/11:30am 14.5 NE 12 15 1028.6 - 0.0 - - - - - - -
28/11:00am 15.2 NE 11 14 1028.8 - 0.0 - - - - - - -
28/10:30am 15.2 NNE 13 17 1028.9 - 0.0 - - - - - - -
28/10:00am 15.0 NNE 14 19 1029.0 - 0.0 - - - - - - -
28/09:30am 14.1 NNE 13 17 1029.2 - 0.0 - - - - - - -
28/09:00am 14.0 NNE 12 16 1029.3 - 0.0 - - - - - - -
28/08:30am 14.2 NNE 12 17 1029.0 - 0.0 - - - - - - -
28/08:00am 13.6 NNE 14 20 1028.7 - 0.0 - - - - - - -
28/07:30am 12.8 NNE 13 18 1028.7 - 0.0 - - - - - - -
28/07:00am 12.1 NNE 14 19 1028.5 - 0.0 - - - - - - -
28/06:30am 11.8 NNE 13 17 1028.4 - 0.0 - - - - - - -
28/06:00am 11.7 NNE 12 16 1028.4 - 0.0 - - - - - - -
28/05:30am 11.8 NNE 11 15 1028.2 - 0.0 - - - - - - -
28/05:00am 11.9 NNE 11 15 1028.1 - 0.0 - - - - - - -
28/04:30am 11.9 N 11 16 1028.2 - 0.0 - - - - - - -
28/04:00am 12.1 NNE 12 17 1028.0 - 0.0 - - - - - - -
28/03:30am 12.1 N 12 16 1028.0 - 0.0 - - - - - - -
28/03:00am 12.2 N 12 16 1028.1 - 0.0 - - - - - - -
28/02:30am 12.3 NNE 13 18 1028.1 - 0.0 - - - - - - -
28/02:00am 12.2 NNE 11 16 1028.3 - 0.0 - - - - - - -
28/01:30am 12.3 NNE 11 17 1028.5 - 0.0 - - - - - - -
28/01:00am 12.3 NNE 11 17 1028.6 - 0.0 - - - - - - -
28/12:30am 12.5 NNE 12 17 1028.6 - 0.0 - - - - - - -
28/12:00am 12.3 NNE 12 17 1028.7 - 0.0 - - - - - - -
 
Date/Time
EST
Temp

°C
Wind Pressure Rain
since 9am
mm
Weather Cloud Vis
km
Sea
Height
m
Swell
Dir
 
Speed
knots
Gust
knots
hPa Trend Height
m
Period
s
Dir
27/11:30pm 12.3 NNE 12 18 1028.7 - 0.0 - - - - - - -
27/11:00pm 12.4 NNE 13 18 1028.5 - 0.0 - - - - - - -
27/10:30pm 12.4 NNE 14 21 1028.5 - 0.0 - - - - - - -
27/10:00pm 12.3 NNE 13 17 1028.7 - 0.0 - - - - - - -
27/09:30pm 12.4 N 12 17 1028.8 - 0.0 - - - - - - -
27/09:00pm 12.4 NNE 12 18 1028.8 - 0.0 - - - - - - -
27/08:30pm 12.5 NNE 14 19 1028.4 - 0.0 - - - - - - -
27/08:00pm 12.5 NNE 14 19 1028.2 - 0.0 - - - - - - -
27/07:30pm 12.6 NNE 14 19 1027.9 - 0.0 - - - - - - -
27/07:00pm 12.6 NNE 12 17 1027.9 - 0.0 - - - - - - -
27/06:30pm 12.7 NNE 11 16 1028.0 - 0.0 - - - - - - -
27/06:00pm 12.9 NNE 12 15 1027.9 - 0.0 - - - - - - -
27/05:30pm 13.1 NNE 14 17 1027.5 - 0.0 - - - - - - -
27/05:00pm 13.3 N 12 17 1027.5 - 0.0 - - - - - - -
27/04:30pm 13.8 NNE 11 16 1027.2 - 0.0 - - - - - - -

Other Formats:

Comma delimited format used in spreadsheet applications
http://www.bom.gov.au/fwo/IDT60701/IDT60701.94893.axf

JavaScript Object Notation format (JSON) in row-major order
http://www.bom.gov.au/fwo/IDT60701/IDT60701.94893.json